createdAt,value
2018-03-21T00:00:50.028Z,-2.45
2018-03-21T00:03:18.296Z,-2.47
2018-03-21T00:05:47.318Z,-2.68
2018-03-21T00:08:15.584Z,-2.61
2018-03-21T00:10:44.608Z,-2.30
2018-03-21T00:13:12.875Z,-2.32
2018-03-21T00:15:41.140Z,-2.38
2018-03-21T00:18:09.396Z,-2.24
2018-03-21T00:20:37.719Z,-2.18
2018-03-21T00:23:05.936Z,-2.19
2018-03-21T00:25:34.504Z,-2.30
2018-03-21T00:28:03.020Z,-2.18
2018-03-21T00:30:31.269Z,-2.19
2018-03-21T00:32:59.524Z,-2.39
2018-03-21T00:35:27.796Z,-2.32
2018-03-21T00:37:56.816Z,-2.27
2018-03-21T00:40:25.092Z,-2.25
2018-03-21T00:42:53.346Z,-2.33
2018-03-21T00:45:22.372Z,-2.16
2018-03-21T00:47:51.068Z,-2.15
2018-03-21T00:50:19.334Z,-2.08
2018-03-21T00:52:47.591Z,-2.12
2018-03-21T00:55:16.620Z,-2.17
2018-03-21T00:57:44.896Z,-2.19
2018-03-21T01:00:13.141Z,-2.29
2018-03-21T01:02:42.156Z,-2.19
2018-03-21T01:05:11.187Z,-2.35
2018-03-21T01:07:39.445Z,-2.20
2018-03-21T01:10:07.716Z,-2.01
2018-03-21T01:12:35.987Z,-1.97
2018-03-21T01:15:05.015Z,-2.01
2018-03-21T01:17:33.297Z,-2.04
2018-03-21T01:20:01.559Z,-2.22
2018-03-21T01:22:29.808Z,-2.26
2018-03-21T01:24:58.081Z,-2.12
2018-03-21T01:27:26.343Z,-2.19
2018-03-21T01:29:54.604Z,-1.99
2018-03-21T01:32:22.857Z,-2.12
2018-03-21T01:34:51.122Z,-1.91
2018-03-21T01:37:20.151Z,-1.96
2018-03-21T01:39:48.415Z,-1.94
2018-03-21T01:42:17.445Z,-1.97
2018-03-21T01:44:45.709Z,-2.05
2018-03-21T01:47:13.971Z,-2.01
2018-03-21T01:49:42.989Z,-2.04
2018-03-21T01:52:11.251Z,-2.06
2018-03-21T01:54:39.540Z,-2.05
2018-03-21T01:57:07.788Z,-2.27
2018-03-21T01:59:36.057Z,-2.17
2018-03-21T02:02:04.324Z,-2.04
2018-03-21T02:04:32.576Z,-2.03
2018-03-21T02:07:00.839Z,-1.89
2018-03-21T02:09:29.804Z,-2.05
2018-03-21T02:11:58.061Z,-2.02
2018-03-21T02:14:26.338Z,-2.06
2018-03-21T02:16:54.587Z,-2.05
2018-03-21T02:19:22.853Z,-1.86
2018-03-21T02:21:51.122Z,-1.85
2018-03-21T02:24:20.140Z,-1.95
2018-03-21T02:26:48.407Z,-1.90
2018-03-21T02:29:17.432Z,-1.81
2018-03-21T02:31:45.694Z,-1.97
2018-03-21T02:34:13.964Z,-1.87
2018-03-21T02:36:42.989Z,-1.90
2018-03-21T02:39:11.265Z,-1.88
2018-03-21T02:41:39.545Z,-1.90
2018-03-21T02:44:07.799Z,-1.91
2018-03-21T02:46:36.828Z,-2.02
2018-03-21T02:49:05.103Z,-1.91
2018-03-21T02:51:33.349Z,-1.91
2018-03-21T02:54:02.389Z,-2.09
2018-03-21T02:56:30.657Z,-2.02
2018-03-21T02:58:58.928Z,-1.99
2018-03-21T03:01:27.185Z,-2.05
2018-03-21T03:03:56.219Z,-2.04
2018-03-21T03:06:24.487Z,-2.08
2018-03-21T03:08:53.521Z,-2.04
2018-03-21T03:11:21.772Z,-2.17
2018-03-21T03:13:50.041Z,-2.12
2018-03-21T03:16:19.060Z,-1.98
2018-03-21T03:18:47.323Z,-1.96
2018-03-21T03:21:15.728Z,-2.01
2018-03-21T03:23:43.988Z,-2.01
2018-03-21T03:26:12.240Z,-1.82
2018-03-21T03:28:40.533Z,-2.04
2018-03-21T03:31:09.665Z,-1.76
2018-03-21T03:33:37.927Z,-1.97
2018-03-21T03:36:06.948Z,-1.92
2018-03-21T03:38:35.221Z,-2.05
2018-03-21T03:41:03.475Z,-2.24
2018-03-21T03:43:32.505Z,-2.38
2018-03-21T03:46:00.763Z,-2.29
2018-03-21T03:48:29.181Z,-1.89
2018-03-21T03:50:57.438Z,-2.11
2018-03-21T03:53:25.689Z,-1.87
2018-03-21T03:55:53.944Z,-2.11
2018-03-21T03:58:22.195Z,-2.21
2018-03-21T04:00:50.460Z,-1.99
2018-03-21T04:03:18.728Z,-1.81
2018-03-21T04:05:46.985Z,-1.71
2018-03-21T04:08:15.261Z,-2.00
2018-03-21T04:10:43.528Z,-1.97
2018-03-21T04:13:11.789Z,-2.09
2018-03-21T04:15:40.052Z,-2.14
2018-03-21T04:18:08.309Z,-1.84
2018-03-21T04:20:36.582Z,-1.92
2018-03-21T04:23:05.604Z,-1.95
2018-03-21T04:25:33.872Z,-1.88
2018-03-21T04:28:02.125Z,-1.88
2018-03-21T04:30:30.388Z,-2.05
2018-03-21T04:32:58.644Z,-2.02
2018-03-21T04:35:26.914Z,-2.17
2018-03-21T04:37:55.172Z,-2.22
2018-03-21T04:40:23.440Z,-2.19
2018-03-21T04:42:52.467Z,-2.19
2018-03-21T04:45:20.744Z,-2.20
2018-03-21T04:47:49.011Z,-2.31
2018-03-21T04:50:17.280Z,-2.27
2018-03-21T04:52:46.314Z,-2.25
2018-03-21T04:55:14.583Z,-2.12
2018-03-21T04:57:42.848Z,-2.15
2018-03-21T05:00:11.889Z,-2.10
2018-03-21T05:02:40.162Z,-2.03
2018-03-21T05:05:08.428Z,-1.62
2018-03-21T05:07:36.689Z,-1.89
2018-03-21T05:10:04.944Z,-2.05
2018-03-21T05:12:33.208Z,-1.99
2018-03-21T05:15:01.463Z,-1.94
2018-03-21T05:17:29.736Z,-1.71
2018-03-21T05:19:58.008Z,-1.78
2018-03-21T05:22:26.268Z,-2.04
2018-03-21T05:24:55.308Z,-2.10
2018-03-21T05:27:23.564Z,-2.14
2018-03-21T05:29:51.824Z,-1.92
2018-03-21T05:32:20.843Z,-2.08
2018-03-21T05:34:49.124Z,-2.10
2018-03-21T05:37:17.372Z,-2.07
2018-03-21T05:39:46.409Z,-1.96
2018-03-21T05:42:14.665Z,-1.92
2018-03-21T05:44:42.937Z,-1.83
2018-03-21T05:47:11.841Z,-1.40
2018-03-21T05:49:40.889Z,-1.56
2018-03-21T05:52:09.155Z,-1.68
2018-03-21T05:54:37.428Z,-1.68
2018-03-21T05:57:05.683Z,-1.82
2018-03-21T05:59:33.941Z,-1.57
2018-03-21T06:02:02.207Z,-1.77
2018-03-21T06:04:30.460Z,-1.46
2018-03-21T06:06:58.728Z,-1.23
2018-03-21T06:09:26.984Z,-0.98
2018-03-21T06:11:55.996Z,-1.03
2018-03-21T06:14:24.260Z,-1.02
2018-03-21T06:16:52.515Z,-1.06
2018-03-21T06:19:20.785Z,-1.39
2018-03-21T06:21:49.068Z,-1.36
2018-03-21T06:24:17.305Z,-1.52
2018-03-21T06:26:45.552Z,-1.54
2018-03-21T06:29:14.573Z,-1.46
2018-03-21T06:31:42.849Z,-1.39
2018-03-21T06:34:11.104Z,-1.29
2018-03-21T06:36:40.132Z,-1.30
2018-03-21T06:39:08.390Z,-1.26
2018-03-21T06:41:37.416Z,-1.16
2018-03-21T06:44:05.676Z,-1.09
2018-03-21T06:46:33.945Z,-1.08
2018-03-21T06:49:02.981Z,-1.06
2018-03-21T06:51:31.258Z,-1.05
2018-03-21T06:53:59.853Z,-0.91
2018-03-21T06:56:28.137Z,-0.65
2018-03-21T06:58:56.397Z,-0.49
2018-03-21T07:01:24.668Z,-0.31
2018-03-21T07:03:52.920Z,-0.33
2018-03-21T07:06:21.189Z,-0.20
2018-03-21T07:08:49.452Z,-0.14
2018-03-21T07:11:17.702Z,0.01
2018-03-21T07:14:03.509Z,0.13
2018-03-21T07:16:42.517Z,-0.10
2018-03-21T07:19:10.780Z,0.20
2018-03-21T07:21:39.044Z,0.21
2018-03-21T07:24:08.073Z,0.50
2018-03-21T07:26:36.341Z,0.62
2018-03-21T07:29:04.600Z,0.56
2018-03-21T07:31:33.622Z,0.42
2018-03-21T07:34:01.888Z,0.13
2018-03-21T07:36:30.901Z,0.19
2018-03-21T07:38:59.201Z,0.13
2018-03-21T07:41:27.448Z,-0.03
2018-03-21T07:43:55.713Z,-0.07
2018-03-21T07:46:24.739Z,-0.39
2018-03-21T07:48:53.007Z,-0.21
2018-03-21T07:51:21.257Z,-0.17
2018-03-21T07:53:49.508Z,-0.10
2018-03-21T07:56:17.765Z,0.09
2018-03-21T07:58:46.028Z,0.41
2018-03-21T08:01:15.060Z,0.69
2018-03-21T08:03:44.124Z,0.93
2018-03-21T08:06:12.372Z,1.18
2018-03-21T08:08:40.637Z,1.34
2018-03-21T08:11:08.888Z,1.55
2018-03-21T08:13:37.386Z,2.06
2018-03-21T08:16:05.652Z,2.24
2018-03-21T08:18:33.909Z,2.66
2018-03-21T08:21:02.164Z,2.50
2018-03-21T08:23:30.428Z,2.50
2018-03-21T08:25:58.673Z,2.39
2018-03-21T08:28:26.928Z,2.25
2018-03-21T08:30:55.957Z,2.29
2018-03-21T08:33:24.204Z,2.59
2018-03-21T08:35:53.269Z,2.94
2018-03-21T08:38:21.477Z,2.80
2018-03-21T08:40:50.501Z,3.26
2018-03-21T08:43:18.744Z,2.60
2018-03-21T08:45:47.774Z,2.36
2018-03-21T08:48:16.021Z,3.32
2018-03-21T08:50:45.316Z,3.60
2018-03-21T08:53:13.569Z,4.04
2018-03-21T08:55:42.400Z,4.12
2018-03-21T08:58:11.536Z,3.75
2018-03-21T09:00:39.780Z,3.97
2018-03-21T09:03:08.796Z,4.45
2018-03-21T09:05:37.068Z,4.87
2018-03-21T09:08:06.077Z,4.76
2018-03-21T09:10:34.338Z,5.09
2018-03-21T09:13:03.403Z,4.67
2018-03-21T09:15:32.369Z,5.06
2018-03-21T09:18:00.608Z,5.04
2018-03-21T09:20:29.660Z,5.01
2018-03-21T09:22:57.893Z,4.55
2018-03-21T09:25:26.919Z,4.53
2018-03-21T09:27:55.155Z,4.32
2018-03-21T09:30:23.415Z,3.38
2018-03-21T09:32:51.661Z,2.64
2018-03-21T09:35:19.909Z,2.04
2018-03-21T09:37:48.943Z,1.79
2018-03-21T09:40:17.191Z,1.77
2018-03-21T09:42:46.226Z,1.68
2018-03-21T09:45:14.482Z,2.13
2018-03-21T09:47:43.488Z,3.18
2018-03-21T09:50:11.740Z,3.27
2018-03-21T09:52:40.761Z,2.73
2018-03-21T09:55:09.022Z,2.53
2018-03-21T09:57:38.028Z,2.09
2018-03-21T10:00:07.056Z,1.35
2018-03-21T10:02:35.308Z,1.24
2018-03-21T10:05:04.345Z,0.61
2018-03-21T10:07:32.592Z,0.75
2018-03-21T10:10:00.835Z,1.19
2018-03-21T10:12:29.096Z,1.27
2018-03-21T10:14:57.351Z,2.03
2018-03-21T10:17:25.623Z,2.02
2018-03-21T10:19:53.867Z,1.43
2018-03-21T10:22:22.115Z,0.72
2018-03-21T10:24:50.367Z,0.61
2018-03-21T10:27:18.632Z,1.10
2018-03-21T10:29:46.901Z,1.02
2018-03-21T10:32:15.908Z,1.55
2018-03-21T10:34:44.180Z,1.47
2018-03-21T10:37:13.204Z,1.85
2018-03-21T10:39:41.464Z,1.92
2018-03-21T10:42:10.480Z,1.69
2018-03-21T10:44:38.745Z,1.23
2018-03-21T10:47:07.757Z,1.05
2018-03-21T10:49:36.021Z,1.48
2018-03-21T10:52:06.280Z,1.37
2018-03-21T10:54:34.572Z,1.21
2018-03-21T10:57:02.799Z,1.84
2018-03-21T10:59:31.822Z,1.58
2018-03-21T11:02:05.622Z,2.27
2018-03-21T11:04:33.808Z,2.41
2018-03-21T11:07:02.058Z,2.53
2018-03-21T11:09:31.064Z,2.55
2018-03-21T11:12:00.084Z,2.99
2018-03-21T11:14:28.324Z,3.72
2018-03-21T11:16:56.581Z,3.35
2018-03-21T11:19:24.825Z,2.63
2018-03-21T11:21:53.081Z,3.02
2018-03-21T11:24:23.333Z,3.04
2018-03-21T11:26:51.583Z,3.19
2018-03-21T11:29:20.602Z,4.16
2018-03-21T11:31:48.855Z,5.09
2018-03-21T11:34:17.868Z,5.03
2018-03-21T11:36:46.880Z,3.18
2018-03-21T11:39:15.126Z,3.89
2018-03-21T11:41:44.145Z,6.65
2018-03-21T11:44:12.389Z,8.64
2018-03-21T11:46:40.644Z,8.07
2018-03-21T11:49:08.888Z,11.29
2018-03-21T11:51:37.136Z,13.49
2018-03-21T11:54:05.389Z,14.95
2018-03-21T11:56:33.633Z,13.91
2018-03-21T11:59:01.896Z,12.55
2018-03-21T12:01:30.909Z,12.55
2018-03-21T12:03:59.166Z,11.73
2018-03-21T12:06:28.183Z,11.12
2018-03-21T12:08:56.428Z,10.18
2018-03-21T12:11:24.689Z,11.29
2018-03-21T12:13:52.944Z,11.96
2018-03-21T12:16:21.192Z,10.21
2018-03-21T12:18:50.219Z,13.99
2018-03-21T12:21:18.460Z,14.23
2018-03-21T12:23:47.475Z,14.60
2018-03-21T12:26:15.740Z,16.68
2018-03-21T12:28:44.760Z,16.17
2018-03-21T12:31:13.017Z,9.10
2018-03-21T12:33:42.047Z,10.19
2018-03-21T12:36:10.333Z,9.67
2018-03-21T12:38:39.096Z,9.54
2018-03-21T12:41:08.104Z,7.96
2018-03-21T12:43:36.360Z,6.58
2018-03-21T12:46:04.684Z,5.71
2018-03-21T12:48:32.929Z,6.10
2018-03-21T12:51:01.933Z,5.72
2018-03-21T12:53:30.940Z,6.03
2018-03-21T12:55:59.257Z,5.89
2018-03-21T12:58:28.212Z,5.58
2018-03-21T13:00:57.211Z,5.35
2018-03-21T13:03:25.493Z,5.16
2018-03-21T13:05:53.718Z,5.30
2018-03-21T13:08:21.962Z,5.25
2018-03-21T13:10:50.204Z,4.95
2018-03-21T13:13:18.467Z,4.67
2018-03-21T13:15:46.710Z,4.66
2018-03-21T13:18:14.944Z,4.57
2018-03-21T13:20:43.203Z,4.66
2018-03-21T13:23:11.440Z,4.76
2018-03-21T13:25:39.684Z,4.53
2018-03-21T13:28:07.936Z,4.88
2018-03-21T13:30:36.177Z,5.12
2018-03-21T13:33:04.433Z,5.37
2018-03-21T13:35:33.437Z,5.44
2018-03-21T13:38:02.460Z,4.78
2018-03-21T13:40:31.529Z,5.28
2018-03-21T13:43:00.557Z,5.32
2018-03-21T13:45:28.791Z,4.76
2018-03-21T13:47:57.048Z,4.12
2018-03-21T13:50:25.333Z,4.74
2018-03-21T13:52:53.594Z,4.52
2018-03-21T13:55:22.549Z,4.46
2018-03-21T13:57:51.568Z,3.58
2018-03-21T14:00:19.813Z,3.68
2018-03-21T14:02:48.060Z,4.21
2018-03-21T14:05:16.304Z,3.39
2018-03-21T14:07:44.563Z,3.75
2018-03-21T14:10:13.571Z,4.22
2018-03-21T14:12:42.576Z,4.19
2018-03-21T14:15:10.824Z,4.20
2018-03-21T14:17:39.098Z,4.29
2018-03-21T14:20:07.336Z,3.84
2018-03-21T14:22:35.868Z,3.95
2018-03-21T14:25:04.123Z,3.95
2018-03-21T14:27:32.364Z,4.11
2018-03-21T14:30:00.616Z,4.46
2018-03-21T14:32:28.858Z,3.53
2018-03-21T14:34:57.103Z,3.93
2018-03-21T14:37:25.339Z,3.55
2018-03-21T14:39:53.581Z,3.81
2018-03-21T14:42:21.829Z,3.94
2018-03-21T14:44:50.850Z,4.11
2018-03-21T14:47:19.101Z,4.08
2018-03-21T14:49:48.108Z,3.87
2018-03-21T14:52:17.136Z,3.36
2018-03-21T14:54:45.395Z,2.08
2018-03-21T14:57:13.647Z,1.91
2018-03-21T14:59:41.885Z,2.32
2018-03-21T15:02:10.140Z,2.29
2018-03-21T15:04:38.397Z,2.33
2018-03-21T15:07:07.404Z,2.61
2018-03-21T15:09:36.423Z,2.65
2018-03-21T15:12:04.669Z,2.84
2018-03-21T15:14:33.694Z,3.03
2018-03-21T15:17:01.980Z,3.07
2018-03-21T15:19:30.185Z,2.20
2018-03-21T15:21:58.454Z,2.36
2018-03-21T15:24:26.675Z,2.68
2018-03-21T15:26:54.913Z,2.79
2018-03-21T15:29:23.164Z,2.93
2018-03-21T15:31:52.179Z,2.98
2018-03-21T15:34:20.436Z,3.04
2018-03-21T15:36:49.462Z,2.87
2018-03-21T15:39:17.704Z,2.29
2018-03-21T15:41:46.726Z,1.92
2018-03-21T15:44:14.975Z,1.95
2018-03-21T15:46:43.214Z,2.19
2018-03-21T15:49:11.473Z,1.97
2018-03-21T15:51:39.711Z,1.89
2018-03-21T15:54:07.961Z,1.92
2018-03-21T15:56:38.215Z,2.19
2018-03-21T15:59:06.456Z,2.25
2018-03-21T16:01:34.713Z,2.07
2018-03-21T16:04:02.972Z,1.89
2018-03-21T16:06:31.996Z,1.76
2018-03-21T16:09:00.244Z,1.68
2018-03-21T16:11:29.270Z,1.57
2018-03-21T16:13:57.521Z,1.43
2018-03-21T16:16:26.538Z,1.31
2018-03-21T16:18:55.548Z,1.43
2018-03-21T16:21:23.797Z,1.50
2018-03-21T16:23:52.811Z,1.30
2018-03-21T16:26:21.836Z,1.26
2018-03-21T16:28:50.089Z,1.16
2018-03-21T16:31:19.109Z,1.05
2018-03-21T16:33:47.361Z,0.98
2018-03-21T16:36:16.384Z,0.96
2018-03-21T16:38:44.628Z,0.77
2018-03-21T16:41:13.656Z,0.73
2018-03-21T16:43:41.884Z,0.55
2018-03-21T16:46:10.132Z,0.41
2018-03-21T16:48:38.379Z,0.29
2018-03-21T16:51:06.636Z,0.19
2018-03-21T16:53:36.724Z,0.07
2018-03-21T16:56:04.980Z,-0.05
2018-03-21T16:58:33.237Z,-0.15
2018-03-21T17:01:02.264Z,-0.30
2018-03-21T17:03:30.522Z,-0.37
2018-03-21T17:05:59.548Z,-0.51
2018-03-21T17:08:27.800Z,-0.61
2018-03-21T17:10:57.171Z,-0.80
2018-03-21T17:13:25.433Z,-0.72
2018-03-21T17:15:53.700Z,-0.94
2018-03-21T17:18:21.958Z,-1.08
2018-03-21T17:20:50.224Z,-1.12
2018-03-21T17:23:19.240Z,-1.16
2018-03-21T17:25:47.484Z,-1.35
2018-03-21T17:28:16.520Z,-1.55
2018-03-21T17:30:44.778Z,-1.61
2018-03-21T17:33:13.796Z,-1.77
2018-03-21T17:35:42.066Z,-1.86
2018-03-21T17:38:10.316Z,-1.77
2018-03-21T17:40:38.596Z,-1.79
2018-03-21T17:43:06.849Z,-1.90
2018-03-21T17:45:35.110Z,-2.12
2018-03-21T17:48:03.386Z,-2.22
2018-03-21T17:50:31.689Z,-1.81
2018-03-21T17:53:00.898Z,-2.08
2018-03-21T17:55:30.096Z,-2.19
2018-03-21T17:57:58.348Z,-2.37
2018-03-21T18:00:26.603Z,-2.40
2018-03-21T18:02:55.637Z,-2.55
2018-03-21T18:05:23.899Z,-2.53
2018-03-21T18:07:52.143Z,-2.72
2018-03-21T18:10:21.173Z,-2.73
2018-03-21T18:12:49.435Z,-2.79
2018-03-21T18:15:18.459Z,-2.86
2018-03-21T18:17:46.721Z,-2.33
2018-03-21T18:20:14.977Z,-2.43
2018-03-21T18:22:43.240Z,-2.56
2018-03-21T18:25:11.496Z,-2.56
2018-03-21T18:27:40.024Z,-2.64
2018-03-21T18:30:08.272Z,-3.14
2018-03-21T18:32:36.523Z,-3.27
2018-03-21T18:35:04.784Z,-3.35
2018-03-21T18:37:33.057Z,-3.27
2018-03-21T18:40:02.077Z,-3.31
2018-03-21T18:42:30.346Z,-3.28
2018-03-21T18:44:58.613Z,-3.26
2018-03-21T18:47:26.874Z,-3.38
2018-03-21T18:49:55.132Z,-3.45
2018-03-21T18:52:23.386Z,-3.51
2018-03-21T18:54:51.896Z,-3.60
2018-03-21T18:57:20.149Z,-3.31
2018-03-21T18:59:48.396Z,-3.15
2018-03-21T19:02:17.748Z,-3.21
2018-03-21T19:04:45.997Z,-3.37
2018-03-21T19:07:15.033Z,-3.49
2018-03-21T19:09:43.281Z,-3.76
2018-03-21T19:12:11.548Z,-3.67
2018-03-21T19:14:40.560Z,-3.48
2018-03-21T19:17:08.825Z,-3.79
2018-03-21T19:19:37.847Z,-3.99
2018-03-21T19:22:06.112Z,-3.55
2018-03-21T19:24:34.369Z,-3.92
2018-03-21T19:27:02.635Z,-4.11
2018-03-21T19:29:30.878Z,-4.13
2018-03-21T19:31:59.124Z,-4.06
2018-03-21T19:34:28.171Z,-4.14
2018-03-21T19:36:56.412Z,-4.21
2018-03-21T19:39:24.686Z,-4.16
2018-03-21T19:41:53.705Z,-4.24
2018-03-21T19:44:21.973Z,-4.29
2018-03-21T19:46:50.234Z,-4.13
2018-03-21T19:49:18.505Z,-4.23
2018-03-21T19:51:46.777Z,-4.38
2018-03-21T19:54:15.016Z,-4.36
2018-03-21T19:56:43.290Z,-4.42
2018-03-21T19:59:11.553Z,-4.52
2018-03-21T20:01:40.560Z,-4.50
2018-03-21T20:04:08.831Z,-4.16
2018-03-21T20:06:37.100Z,-4.13
2018-03-21T20:09:06.229Z,-4.32
2018-03-21T20:11:34.488Z,-4.66
2018-03-21T20:14:03.505Z,-4.77
2018-03-21T20:16:31.768Z,-4.78
2018-03-21T20:19:00.791Z,-4.85
2018-03-21T20:21:29.100Z,-4.90
2018-03-21T20:23:57.456Z,-4.92
2018-03-21T20:26:26.801Z,-4.93
2018-03-21T20:28:55.056Z,-4.97
2018-03-21T20:31:23.337Z,-5.06
2018-03-21T20:33:51.600Z,-5.09
2018-03-21T20:36:20.625Z,-5.17
2018-03-21T20:38:48.878Z,-5.23
2018-03-21T20:41:17.152Z,-5.25
2018-03-21T20:43:45.395Z,-5.26
2018-03-21T20:46:14.428Z,-5.25
2018-03-21T20:48:42.711Z,-5.29
2018-03-21T20:51:10.960Z,-5.27
2018-03-21T20:53:39.988Z,-5.28
2018-03-21T20:56:08.250Z,-5.30
2018-03-21T20:58:37.278Z,-5.28
2018-03-21T21:01:05.543Z,-5.32
2018-03-21T21:03:33.797Z,-5.27
2018-03-21T21:06:02.890Z,-5.33
2018-03-21T21:08:32.665Z,-5.46
2018-03-21T21:11:00.934Z,-5.48
2018-03-21T21:13:29.288Z,-5.33
2018-03-21T21:15:58.328Z,-5.31
2018-03-21T21:18:26.593Z,-5.70
2018-03-21T21:20:54.852Z,-5.75
2018-03-21T21:23:23.105Z,-5.72
2018-03-21T21:25:51.372Z,-5.79
2018-03-21T21:28:19.637Z,-5.79
2018-03-21T21:30:47.902Z,-5.84
2018-03-21T21:33:16.163Z,-5.89
2018-03-21T21:35:44.423Z,-5.97
2018-03-21T21:38:13.440Z,-6.00
2018-03-21T21:40:41.697Z,-6.08
2018-03-21T21:43:10.741Z,-6.11
2018-03-21T21:45:38.987Z,-6.13
2018-03-21T21:48:07.240Z,-6.05
2018-03-21T21:50:35.526Z,-5.91
2018-03-21T21:53:03.832Z,-6.21
2018-03-21T21:55:32.096Z,-6.27
2018-03-21T21:58:01.129Z,-6.31
2018-03-21T22:00:29.388Z,-6.36
2018-03-21T22:02:57.664Z,-6.35
2018-03-21T22:05:26.685Z,-6.47
2018-03-21T22:07:55.046Z,-6.39
2018-03-21T22:10:23.320Z,-6.39
2018-03-21T22:12:52.339Z,-6.44
2018-03-21T22:15:20.603Z,-6.50
2018-03-21T22:17:48.883Z,-6.50
2018-03-21T22:20:17.151Z,-6.48
2018-03-21T22:22:46.178Z,-6.52
2018-03-21T22:25:14.445Z,-6.55
2018-03-21T22:27:43.476Z,-6.57
2018-03-21T22:30:11.744Z,-6.50
2018-03-21T22:32:40.000Z,-6.59
2018-03-21T22:35:09.041Z,-6.65
2018-03-21T22:37:37.300Z,-6.65
2018-03-21T22:40:05.572Z,-6.63
2018-03-21T22:42:33.839Z,-6.64
2018-03-21T22:45:02.103Z,-6.64
2018-03-21T22:47:31.125Z,-6.64
2018-03-21T22:49:59.387Z,-6.66
2018-03-21T22:52:28.433Z,-6.46
2018-03-21T22:54:56.696Z,-6.82
2018-03-21T22:57:24.944Z,-6.88
2018-03-21T22:59:53.984Z,-6.87
2018-03-21T23:02:22.240Z,-6.95
2018-03-21T23:04:50.512Z,-6.95
2018-03-21T23:07:19.541Z,-6.95
2018-03-21T23:09:47.804Z,-7.01
2018-03-21T23:12:16.061Z,-7.03
2018-03-21T23:14:45.371Z,-7.15
2018-03-21T23:17:14.393Z,-7.16
2018-03-21T23:19:42.656Z,-7.17
2018-03-21T23:22:11.688Z,-7.14
2018-03-21T23:24:39.950Z,-7.16
2018-03-21T23:27:08.217Z,-7.19
2018-03-21T23:29:36.471Z,-7.18
2018-03-21T23:32:04.723Z,-7.17
2018-03-21T23:34:32.996Z,-7.19
2018-03-21T23:37:01.264Z,-7.21
2018-03-21T23:39:29.545Z,-7.21
2018-03-21T23:41:57.961Z,-7.08
2018-03-21T23:44:26.229Z,-7.10
2018-03-21T23:46:54.490Z,-7.17
2018-03-21T23:49:22.761Z,-7.24
2018-03-21T23:51:51.027Z,-7.29
2018-03-21T23:54:20.051Z,-7.22
2018-03-21T23:56:48.321Z,-7.26
2018-03-21T23:59:16.585Z,-7.31
